Time;durP1;ratioP1;P1;durP2;ratioP2;P2;SDS_P1;SDS_P2;PMS_P1;PMS_P2;Temp;Humidity;BMP_temperature;BMP_pressure;BME280_temperature;BME280_humidity;BME280_pressure;Samples;Min_cycle;Max_cycle;Signal;HPM_P1;HPM_P2
2022/07/18 00:00:33;;;;;;;5.72;2.05;;;14.90;79.20;;;;;;5109244;27;20040;-65
2022/07/18 00:02:59;;;;;;;5.63;2.25;;;14.90;79.60;;;;;;5113633;28;20340;-65
2022/07/18 00:05:28;;;;;;;4.40;2.20;;;14.90;79.00;;;;;;5104765;28;20060;-65
2022/07/18 00:07:56;;;;;;;6.10;2.35;;;15.00;77.80;;;;;;5094797;28;20159;-65
2022/07/18 00:10:22;;;;;;;4.03;1.88;;;15.20;76.60;;;;;;5097829;27;20413;-65
2022/07/18 00:12:50;;;;;;;4.97;1.90;;;15.20;76.80;;;;;;5093257;27;20123;-65
2022/07/18 00:15:16;;;;;;;4.75;1.80;;;15.30;76.20;;;;;;5099899;28;20023;-65
2022/07/18 00:17:41;;;;;;;4.57;1.83;;;15.40;75.70;;;;;;5097497;28;20028;-65
2022/07/18 00:20:10;;;;;;;5.38;2.10;;;15.60;75.70;;;;;;5097111;28;20477;-65
2022/07/18 00:22:36;;;;;;;5.15;2.00;;;15.70;74.60;;;;;;5097037;28;20032;-65
2022/07/18 00:25:02;;;;;;;4.28;2.03;;;15.80;74.90;;;;;;5097526;28;20031;-65
2022/07/18 00:27:27;;;;;;;4.25;2.13;;;15.70;74.90;;;;;;5097382;28;20035;-65
2022/07/18 00:29:53;;;;;;;5.35;2.30;;;15.70;75.40;;;;;;5099393;28;20031;-65
2022/07/18 00:32:19;;;;;;;4.40;2.30;;;15.70;75.00;;;;;;5099640;28;20465;-64
2022/07/18 00:34:44;;;;;;;3.50;2.03;;;15.70;76.10;;;;;;5100645;28;20024;-64
2022/07/18 00:37:10;;;;;;;5.22;2.10;;;15.60;76.90;;;;;;5099503;28;20055;-64
2022/07/18 00:39:36;;;;;;;4.90;2.20;;;15.50;77.80;;;;;;5095261;28;20095;-64
2022/07/18 00:42:02;;;;;;;6.10;2.40;;;15.50;77.60;;;;;;5098162;28;20032;-65
2022/07/18 00:44:31;;;;;;;5.55;2.67;;;15.40;78.30;;;;;;5092103;28;20036;-65
2022/07/18 00:46:59;;;;;;;6.55;2.40;;;15.30;78.50;;;;;;5092796;28;20051;-65
2022/07/18 00:49:25;;;;;;;4.82;2.10;;;15.20;79.20;;;;;;5091855;28;20056;-65
2022/07/18 00:51:54;;;;;;;6.35;2.28;;;15.10;79.80;;;;;;5099736;28;20029;-66
2022/07/18 00:54:20;;;;;;;4.18;2.20;;;15.00;79.60;;;;;;5096785;28;20038;-65
2022/07/18 00:56:48;;;;;;;4.55;2.00;;;15.00;79.60;;;;;;5092162;28;20036;-65
2022/07/18 00:59:14;;;;;;;4.05;2.20;;;15.10;78.70;;;;;;5093544;28;20036;-65
2022/07/18 01:01:43;;;;;;;3.80;2.20;;;15.20;78.40;;;;;;5097321;28;20043;-65
2022/07/18 01:04:23;;;;;;;5.45;2.20;;;15.30;78.40;;;;;;5098017;28;20028;-65
2022/07/18 01:06:50;;;;;;;5.22;2.50;;;15.30;78.60;;;;;;5099277;28;20065;-65
2022/07/18 01:09:19;;;;;;;4.78;2.35;;;15.20;78.90;;;;;;5109650;28;20034;-65
2022/07/18 01:11:48;;;;;;;5.10;2.42;;;15.20;78.80;;;;;;5110087;27;20055;-65
2022/07/18 01:14:14;;;;;;;4.20;2.13;;;15.20;78.60;;;;;;5116439;27;20473;-65
2022/07/18 01:16:43;;;;;;;3.78;2.20;;;15.20;78.10;;;;;;5109420;27;20020;-65
2022/07/18 01:19:09;;;;;;;5.10;2.20;;;15.20;78.80;;;;;;5102807;27;20087;-65
2022/07/18 01:21:36;;;;;;;6.90;2.10;;;15.00;79.10;;;;;;5114949;27;20020;-65
2022/07/18 01:24:02;;;;;;;6.03;2.50;;;14.90;78.80;;;;;;5112636;27;20518;-65
2022/07/18 01:26:28;;;;;;;4.70;2.55;;;15.00;78.70;;;;;;5112934;27;20039;-64
2022/07/18 01:28:54;;;;;;;6.00;2.13;;;15.10;78.40;;;;;;5105784;27;20039;-65
2022/07/18 01:31:19;;;;;;;4.57;2.50;;;15.10;78.40;;;;;;5116647;27;20046;-65
2022/07/18 01:33:45;;;;;;;4.18;2.22;;;15.10;78.40;;;;;;5113524;27;20034;-65
2022/07/18 01:36:11;;;;;;;4.35;2.10;;;15.20;78.00;;;;;;5118113;27;20031;-65
2022/07/18 01:38:37;;;;;;;3.70;2.20;;;15.30;76.90;;;;;;5114896;27;20150;-64
2022/07/18 01:41:03;;;;;;;5.63;2.13;;;15.50;76.40;;;;;;5115971;27;20023;-65
2022/07/18 01:43:29;;;;;;;7.03;2.65;;;15.60;75.80;;;;;;5111160;27;20447;-65
2022/07/18 01:45:55;;;;;;;4.63;2.00;;;15.70;75.90;;;;;;5111149;27;20043;-65
2022/07/18 01:48:23;;;;;;;3.42;2.00;;;15.70;75.80;;;;;;5111511;27;20032;-64
2022/07/18 01:50:49;;;;;;;4.78;2.05;;;15.70;76.00;;;;;;5115953;27;20078;-65
2022/07/18 01:53:15;;;;;;;3.88;2.28;;;15.40;79.30;;;;;;5115819;28;20080;-65
2022/07/18 01:55:41;;;;;;;4.72;2.35;;;15.00;81.00;;;;;;5115103;27;20339;-65
2022/07/18 01:58:07;;;;;;;5.55;2.60;;;14.60;82.50;;;;;;5119120;27;20031;-65
2022/07/18 02:00:33;;;;;;;3.83;2.30;;;14.10;83.80;;;;;;5116650;27;20112;-66
2022/07/18 02:02:58;;;;;;;4.38;2.70;;;13.80;85.10;;;;;;5115328;27;20043;-64
2022/07/18 02:05:24;;;;;;;5.47;2.80;;;13.60;85.90;;;;;;5122686;27;20034;-65
2022/07/18 02:07:50;;;;;;;4.78;2.45;;;13.40;86.60;;;;;;5100349;27;20066;-65
2022/07/18 02:10:19;;;;;;;5.00;2.30;;;13.20;87.20;;;;;;5112190;28;20356;-65
2022/07/18 02:12:45;;;;;;;4.22;2.47;;;13.10;87.80;;;;;;5107866;27;20032;-65
2022/07/18 02:15:12;;;;;;;5.65;2.60;;;12.90;88.20;;;;;;5113897;27;20024;-65
2022/07/18 02:17:38;;;;;;;5.07;2.80;;;12.80;88.70;;;;;;5125613;27;20024;-65
2022/07/18 02:20:07;;;;;;;5.95;2.33;;;12.80;88.70;;;;;;5111939;28;20039;-64
2022/07/18 02:22:33;;;;;;;5.47;2.53;;;12.80;88.30;;;;;;5111795;28;20046;-64
2022/07/18 02:24:59;;;;;;;5.07;2.42;;;12.90;87.90;;;;;;5106565;27;20035;-64
2022/07/18 02:27:25;;;;;;;4.68;2.80;;;13.00;87.40;;;;;;5111907;27;20031;-65
2022/07/18 02:29:51;;;;;;;5.05;2.33;;;13.10;87.10;;;;;;5117454;27;20027;-65
2022/07/18 02:32:16;;;;;;;4.50;2.50;;;13.10;86.70;;;;;;5113230;27;20032;-64
2022/07/18 02:34:42;;;;;;;4.22;2.30;;;13.10;87.00;;;;;;5118918;27;20030;-64
2022/07/18 02:37:08;;;;;;;5.00;2.70;;;13.10;86.70;;;;;;5116272;27;20054;-65
2022/07/18 02:39:34;;;;;;;3.67;2.17;;;13.10;87.10;;;;;;5111765;27;20028;-64
2022/07/18 02:42:00;;;;;;;5.50;2.13;;;13.10;86.00;;;;;;5114559;27;20043;-65
2022/07/18 02:44:26;;;;;;;4.35;2.10;;;13.20;84.90;;;;;;5115658;28;20091;-65
2022/07/18 02:46:52;;;;;;;4.22;2.20;;;13.40;83.60;;;;;;5114713;27;20381;-64
2022/07/18 02:49:27;;;;;;;6.50;2.30;;;13.50;83.10;;;;;;5111326;27;20087;-65
2022/07/18 02:51:58;;;;;;;5.45;2.40;;;13.70;82.10;;;;;;5108393;28;20123;-64
2022/07/18 02:54:25;;;;;;;5.13;2.33;;;13.80;81.70;;;;;;5097626;28;20524;-64
2022/07/18 02:56:51;;;;;;;5.20;2.20;;;14.00;80.60;;;;;;5117512;27;20066;-64
2022/07/18 02:59:16;;;;;;;6.55;1.95;;;14.20;79.50;;;;;;5114152;27;20403;-64
2022/07/18 03:01:45;;;;;;;3.97;1.90;;;14.30;78.80;;;;;;5113895;27;20039;-64
2022/07/18 03:04:10;;;;;;;5.63;2.03;;;14.40;78.00;;;;;;5116367;27;20351;-64
2022/07/18 03:06:39;;;;;;;4.05;1.98;;;14.50;76.90;;;;;;5116781;27;20031;-64
2022/07/18 03:09:05;;;;;;;4.10;1.80;;;14.60;76.50;;;;;;5104096;27;20545;-64
2022/07/18 03:11:34;;;;;;;4.45;2.10;;;14.80;75.60;;;;;;5113303;28;20114;-64
2022/07/18 03:14:00;;;;;;;5.43;2.00;;;14.90;75.20;;;;;;5111112;27;20024;-64
2022/07/18 03:16:26;;;;;;;3.75;1.95;;;15.00;75.70;;;;;;5114960;27;20019;-64
2022/07/18 03:18:51;;;;;;;7.35;1.85;;;15.00;76.00;;;;;;5110184;27;20339;-64
2022/07/18 03:21:20;;;;;;;5.30;1.98;;;14.90;74.60;;;;;;5115193;27;20023;-64
2022/07/18 03:23:46;;;;;;;5.03;1.90;;;14.90;75.70;;;;;;5116983;28;20412;-64
2022/07/18 03:26:12;;;;;;;3.80;1.92;;;14.70;76.90;;;;;;5105196;27;20118;-64
2022/07/18 03:28:37;;;;;;;3.70;1.67;;;14.60;76.70;;;;;;5107178;27;20031;-63
2022/07/18 03:31:03;;;;;;;3.78;1.92;;;14.60;75.80;;;;;;5117198;27;20300;-63
2022/07/18 03:33:29;;;;;;;5.15;2.10;;;14.40;78.10;;;;;;5106486;28;20034;-63
2022/07/18 03:35:55;;;;;;;5.88;2.25;;;14.20;80.60;;;;;;5123039;27;20027;-63
2022/07/18 03:38:20;;;;;;;4.20;2.10;;;13.90;80.90;;;;;;5109262;27;20052;-65
2022/07/18 03:40:49;;;;;;;4.53;1.90;;;13.80;80.70;;;;;;5100394;28;20024;-65
2022/07/18 03:43:15;;;;;;;5.20;2.17;;;13.70;79.60;;;;;;5112388;28;20045;-65
2022/07/18 03:45:40;;;;;;;3.35;1.90;;;13.60;80.50;;;;;;5109941;27;20024;-65
2022/07/18 03:48:06;;;;;;;9.82;2.30;;;13.60;81.00;;;;;;5107808;27;20142;-65
2022/07/18 03:50:33;;;;;;;4.10;2.08;;;13.70;79.50;;;;;;5112633;28;20031;-64
2022/07/18 03:52:59;;;;;;;4.75;2.40;;;13.70;80.10;;;;;;5108833;28;20028;-64
2022/07/18 03:55:25;;;;;;;4.10;2.05;;;13.80;80.20;;;;;;5108655;28;20027;-64
2022/07/18 03:57:50;;;;;;;6.25;2.22;;;13.80;80.70;;;;;;5112665;27;20111;-64
2022/07/18 04:00:16;;;;;;;4.38;2.25;;;13.80;80.10;;;;;;5113264;28;20041;-64
2022/07/18 04:02:44;;;;;;;5.90;2.22;;;13.90;79.40;;;;;;5114413;27;20027;-65
2022/07/18 04:05:11;;;;;;;4.45;1.90;;;14.10;77.90;;;;;;5103874;28;20106;-64
2022/07/18 04:07:37;;;;;;;4.13;2.00;;;14.20;78.00;;;;;;5093553;27;20076;-64
2022/07/18 04:10:05;;;;;;;5.97;2.20;;;14.20;78.50;;;;;;5092804;28;20054;-64
2022/07/18 04:12:30;;;;;;;4.28;2.10;;;14.20;77.80;;;;;;5109640;28;20031;-64
2022/07/18 04:14:56;;;;;;;3.65;2.00;;;14.20;78.80;;;;;;5107702;27;20023;-64
2022/07/18 04:17:22;;;;;;;4.00;2.05;;;14.20;79.60;;;;;;5114505;28;20019;-64
2022/07/18 04:19:48;;;;;;;3.05;1.77;;;14.20;79.70;;;;;;5115366;28;20080;-64
2022/07/18 04:22:14;;;;;;;4.10;1.80;;;14.20;78.80;;;;;;5110805;28;20081;-64
2022/07/18 04:24:39;;;;;;;4.55;2.28;;;14.30;78.70;;;;;;5107508;28;20035;-65
2022/07/18 04:27:05;;;;;;;6.10;2.25;;;14.20;78.90;;;;;;5115338;28;20055;-64
2022/07/18 04:29:31;;;;;;;4.30;1.88;;;14.20;80.70;;;;;;5104500;28;20950;-64
2022/07/18 04:31:58;;;;;;;3.85;2.20;;;14.20;81.10;;;;;;5109837;28;20028;-64
2022/07/18 04:34:23;;;;;;;5.43;2.05;;;14.20;81.10;;;;;;5112340;28;20028;-64
2022/07/18 04:36:49;;;;;;;4.47;1.90;;;14.20;82.10;;;;;;5120104;28;20336;-64
2022/07/18 04:39:16;;;;;;;6.00;2.38;;;14.20;81.60;;;;;;5093717;28;20105;-64
2022/07/18 04:41:45;;;;;;;5.38;2.38;;;14.20;82.60;;;;;;5104504;28;20043;-65
2022/07/18 04:44:10;;;;;;;4.82;2.53;;;14.20;82.80;;;;;;5109724;28;20032;-64
2022/07/18 04:46:36;;;;;;;5.55;2.42;;;14.20;83.10;;;;;;5102569;28;20043;-65
2022/07/18 04:49:02;;;;;;;6.22;2.25;;;14.20;83.20;;;;;;5092872;28;20409;-64
2022/07/18 04:51:28;;;;;;;3.63;2.22;;;14.20;83.60;;;;;;5086848;28;20065;-65
2022/07/18 04:53:54;;;;;;;4.82;2.25;;;14.20;83.30;;;;;;5087250;28;20020;-64
2022/07/18 04:56:21;;;;;;;5.38;2.25;;;14.30;83.90;;;;;;5089154;28;20028;-64
2022/07/18 04:58:47;;;;;;;6.07;2.20;;;14.40;83.40;;;;;;5077852;28;20146;-64
2022/07/18 05:01:13;;;;;;;8.40;2.40;;;14.50;83.50;;;;;;5085130;28;20028;-64
2022/07/18 05:03:39;;;;;;;4.03;2.40;;;14.60;84.10;;;;;;5107290;28;20111;-64
2022/07/18 05:06:05;;;;;;;4.65;2.22;;;14.70;84.20;;;;;;5082363;28;20032;-64
2022/07/18 05:08:30;;;;;;;5.60;2.30;;;14.70;84.10;;;;;;5086081;28;20020;-64
2022/07/18 05:10:56;;;;;;;6.00;2.33;;;14.80;84.60;;;;;;5084349;28;20027;-64
2022/07/18 05:13:22;;;;;;;3.88;2.10;;;14.80;84.40;;;;;;5090019;28;20148;-64
2022/07/18 05:15:47;;;;;;;5.10;2.33;;;14.90;84.10;;;;;;5084236;28;20047;-64
2022/07/18 05:18:13;;;;;;;5.78;2.35;;;15.00;84.10;;;;;;5088296;28;20092;-64
2022/07/18 05:20:39;;;;;;;5.93;2.35;;;15.20;84.00;;;;;;5083423;28;20028;-64
2022/07/18 05:23:08;;;;;;;8.57;2.50;;;15.20;84.60;;;;;;5085968;28;20094;-64
2022/07/18 05:25:34;;;;;;;3.35;1.90;;;15.40;84.80;;;;;;5085712;28;20046;-64
2022/07/18 05:27:59;;;;;;;5.00;2.15;;;15.50;83.90;;;;;;5082191;28;20029;-64
2022/07/18 05:30:25;;;;;;;6.40;2.58;;;15.60;83.70;;;;;;5083285;28;20021;-64
2022/07/18 05:32:52;;;;;;;8.18;3.80;;;15.70;83.00;;;;;;5083231;28;20040;-64
2022/07/18 05:35:18;;;;;;;4.45;2.47;;;15.80;84.50;;;;;;5081976;28;20029;-64
2022/07/18 05:37:44;;;;;;;7.53;2.25;;;16.10;82.20;;;;;;5080114;28;20326;-64
2022/07/18 05:40:12;;;;;;;4.60;2.50;;;16.30;80.80;;;;;;5080332;28;20034;-64
2022/07/18 05:42:38;;;;;;;5.32;2.20;;;16.50;79.60;;;;;;5084500;28;20032;-64
2022/07/18 05:45:04;;;;;;;3.97;2.10;;;16.70;77.50;;;;;;5088884;28;20077;-64
2022/07/18 05:47:33;;;;;;;4.18;2.20;;;16.90;77.00;;;;;;5091074;28;20072;-64
2022/07/18 05:49:59;;;;;;;4.20;2.03;;;17.10;79.70;;;;;;5091684;28;20055;-64
2022/07/18 05:52:24;;;;;;;4.43;2.20;;;17.40;77.00;;;;;;5100138;28;20558;-64
2022/07/18 05:54:50;;;;;;;5.30;2.30;;;17.50;79.30;;;;;;5088342;28;20031;-64
2022/07/18 05:57:18;;;;;;;4.53;1.70;;;17.60;79.50;;;;;;5092146;28;20409;-63
2022/07/18 05:59:44;;;;;;;7.35;2.20;;;17.80;79.20;;;;;;5083696;28;20099;-64
2022/07/18 06:02:10;;;;;;;3.80;2.00;;;18.00;79.00;;;;;;5081427;28;20114;-64
2022/07/18 06:04:36;;;;;;;6.53;2.08;;;18.20;78.50;;;;;;5090235;28;20023;-64
2022/07/18 06:07:02;;;;;;;4.28;1.90;;;18.30;76.90;;;;;;5093098;28;20031;-63
2022/07/18 06:09:30;;;;;;;5.25;2.20;;;18.50;76.70;;;;;;5091535;28;20121;-64
2022/07/18 06:12:00;;;;;;;6.53;2.30;;;18.70;74.30;;;;;;5093945;28;20326;-64
2022/07/18 06:14:27;;;;;;;4.30;1.80;;;18.90;72.30;;;;;;5091484;28;20036;-64
2022/07/18 06:16:53;;;;;;;4.53;1.98;;;19.00;69.90;;;;;;5083101;28;20025;-65
2022/07/18 06:19:18;;;;;;;4.13;2.00;;;19.10;69.40;;;;;;5078179;28;20058;-64
2022/07/18 06:21:44;;;;;;;4.55;2.20;;;19.20;68.80;;;;;;5077445;28;20029;-64
2022/07/18 06:24:10;;;;;;;7.05;2.10;;;19.40;68.30;;;;;;5082957;28;20225;-63
2022/07/18 06:26:35;;;;;;;5.95;2.13;;;19.50;68.10;;;;;;5089907;28;20455;-63
2022/07/18 06:29:01;;;;;;;6.63;1.90;;;19.80;67.90;;;;;;5076553;28;20107;-64
2022/07/18 06:31:27;;;;;;;5.60;2.28;;;19.90;67.90;;;;;;5091646;28;20075;-65
2022/07/18 06:33:52;;;;;;;4.32;1.80;;;20.00;68.30;;;;;;5085391;28;20027;-66
2022/07/18 06:36:18;;;;;;;4.68;2.40;;;20.20;67.60;;;;;;5092396;28;20409;-65
2022/07/18 06:38:44;;;;;;;5.40;2.20;;;20.30;68.20;;;;;;5093178;28;20066;-65
2022/07/18 06:41:09;;;;;;;5.40;2.22;;;20.40;68.70;;;;;;5085787;28;20024;-64
2022/07/18 06:43:38;;;;;;;7.10;2.30;;;20.30;67.20;;;;;;5083427;28;20483;-65
2022/07/18 06:46:04;;;;;;;4.45;2.20;;;20.30;67.60;;;;;;5086654;28;20543;-64
2022/07/18 06:48:33;;;;;;;5.88;2.20;;;20.40;67.20;;;;;;5099679;28;20036;-64
2022/07/18 06:51:05;;;;;;;4.20;2.10;;;20.60;67.90;;;;;;5089794;28;20111;-64
2022/07/18 06:53:32;;;;;;;6.50;2.30;;;20.90;66.40;;;;;;5096737;28;20031;-63
2022/07/18 06:55:58;;;;;;;4.45;2.17;;;21.10;66.20;;;;;;5090856;28;20047;-64
2022/07/18 06:58:24;;;;;;;4.43;2.20;;;21.20;66.00;;;;;;5098903;28;20028;-64
2022/07/18 07:00:50;;;;;;;6.95;2.30;;;21.20;66.40;;;;;;5095549;28;20016;-64
2022/07/18 07:03:16;;;;;;;4.05;2.10;;;21.40;66.30;;;;;;5087669;28;20055;-64
2022/07/18 07:05:42;;;;;;;5.50;2.03;;;21.50;65.30;;;;;;5103039;28;20451;-64
2022/07/18 07:08:08;;;;;;;4.97;2.33;;;21.60;65.60;;;;;;5097251;28;20032;-64
2022/07/18 07:10:33;;;;;;;3.92;1.98;;;21.70;65.70;;;;;;5098068;28;20028;-64
2022/07/18 07:12:59;;;;;;;4.88;1.80;;;21.80;66.80;;;;;;5097742;28;20024;-65
2022/07/18 07:15:25;;;;;;;7.78;2.42;;;21.80;67.10;;;;;;5104025;28;20020;-64
2022/07/18 07:17:51;;;;;;;6.70;2.08;;;22.00;67.00;;;;;;5093806;28;20082;-64
2022/07/18 07:20:19;;;;;;;5.00;2.17;;;22.10;66.30;;;;;;5099014;28;20028;-64
2022/07/18 07:22:56;;;;;;;4.38;2.28;;;22.10;66.50;;;;;;5086609;28;20060;-64
2022/07/18 07:25:23;;;;;;;4.63;2.17;;;22.20;66.50;;;;;;5075993;28;20032;-64
2022/07/18 07:27:49;;;;;;;5.93;2.40;;;22.10;66.30;;;;;;5089093;28;20023;-64
2022/07/18 07:30:15;;;;;;;5.70;2.47;;;22.20;67.00;;;;;;5095887;28;20435;-64
2022/07/18 07:32:44;;;;;;;5.90;2.38;;;22.30;67.20;;;;;;5096476;28;20027;-64
2022/07/18 07:35:13;;;;;;;5.65;2.20;;;22.50;67.30;;;;;;5093846;28;20302;-63
2022/07/18 07:37:43;;;;;;;6.40;2.35;;;23.20;66.10;;;;;;5096488;28;20028;-64
2022/07/18 07:40:09;;;;;;;8.98;2.28;;;24.10;64.90;;;;;;5093536;28;20337;-63
2022/07/18 07:42:35;;;;;;;14.98;2.78;;;25.20;62.60;;;;;;5107342;28;20023;-64
2022/07/18 07:45:01;;;;;;;7.32;2.10;;;26.10;61.20;;;;;;5108633;28;20024;-65
2022/07/18 07:47:28;;;;;;;4.50;2.15;;;27.10;59.20;;;;;;5110868;28;20043;-65
2022/07/18 07:49:55;;;;;;;4.72;2.03;;;27.40;58.40;;;;;;5111412;28;20026;-65
2022/07/18 07:52:20;;;;;;;5.38;1.80;;;28.50;57.50;;;;;;5114753;28;20035;-67
2022/07/18 07:54:46;;;;;;;6.72;2.00;;;29.00;56.00;;;;;;5112268;28;20317;-82
2022/07/18 07:57:12;;;;;;;5.63;1.92;;;28.40;57.70;;;;;;5117182;28;20023;-64
2022/07/18 07:59:38;;;;;;;7.68;2.15;;;27.40;59.60;;;;;;5113444;28;20027;-66
2022/07/18 08:02:04;;;;;;;10.48;2.17;;;27.50;59.80;;;;;;5126619;28;20037;-65
2022/07/18 08:04:29;;;;;;;8.98;2.42;;;27.70;58.40;;;;;;5121570;28;20032;-65
2022/07/18 08:06:55;;;;;;;6.30;2.20;;;27.90;58.20;;;;;;5129967;28;20408;-65
2022/07/18 08:09:21;;;;;;;5.03;1.90;;;28.40;58.20;;;;;;5125715;27;20062;-65
2022/07/18 08:11:47;;;;;;;7.50;2.15;;;28.50;56.60;;;;;;5115374;28;20081;-65
2022/07/18 08:14:12;;;;;;;4.28;1.83;;;28.50;56.80;;;;;;5114408;28;20023;-65
2022/07/18 08:16:38;;;;;;;7.38;2.00;;;28.60;58.00;;;;;;5114185;28;20023;-65
2022/07/18 08:19:04;;;;;;;6.85;1.92;;;29.20;55.80;;;;;;5112790;28;20040;-65
2022/07/18 08:21:30;;;;;;;4.20;1.90;;;29.50;55.20;;;;;;5112864;28;20103;-65
2022/07/18 08:23:55;;;;;;;6.15;2.15;;;29.80;55.20;;;;;;5126404;28;20316;-65
2022/07/18 08:26:21;;;;;;;7.05;1.90;;;29.60;55.00;;;;;;5114202;28;20015;-65
2022/07/18 08:28:47;;;;;;;6.25;2.10;;;29.30;55.60;;;;;;5126610;28;20031;-65
2022/07/18 08:31:13;;;;;;;4.18;1.70;;;29.60;55.70;;;;;;5115153;28;20032;-65
2022/07/18 08:33:39;;;;;;;6.25;1.90;;;29.90;54.80;;;;;;5113943;28;20032;-65
2022/07/18 08:36:05;;;;;;;5.10;2.03;;;30.40;54.20;;;;;;5115270;28;20042;-65
2022/07/18 08:38:30;;;;;;;5.05;2.08;;;30.20;54.80;;;;;;5119953;28;20035;-65
2022/07/18 08:40:58;;;;;;;5.90;2.30;;;30.30;54.60;;;;;;5113890;28;20032;-65
2022/07/18 08:43:25;;;;;;;5.70;2.00;;;30.50;54.00;;;;;;5115166;28;20024;-66
2022/07/18 08:45:55;;;;;;;6.75;2.28;;;30.60;53.90;;;;;;5075115;28;1133659;-65
2022/07/18 08:48:21;;;;;;;6.05;2.20;;;30.40;54.40;;;;;;5117158;28;20019;-65
2022/07/18 08:50:48;;;;;;;6.97;2.33;;;30.60;54.90;;;;;;5115616;28;20036;-65
2022/07/18 08:53:16;;;;;;;5.82;2.08;;;31.20;54.10;;;;;;5114995;28;20034;-66
2022/07/18 08:55:43;;;;;;;4.07;2.15;;;31.40;52.70;;;;;;5113665;28;20424;-66
2022/07/18 08:58:14;;;;;;;4.82;2.13;;;31.30;53.30;;;;;;5115189;28;20024;-64
2022/07/18 09:00:40;;;;;;;4.30;2.15;;;31.30;52.70;;;;;;5116215;28;20359;-65
2022/07/18 09:03:06;;;;;;;4.68;2.17;;;31.20;53.30;;;;;;5109504;28;20027;-65
2022/07/18 09:05:38;;;;;;;5.05;2.10;;;30.90;53.00;;;;;;5115180;28;20063;-65
2022/07/18 09:08:16;;;;;;;4.47;2.03;;;30.70;53.70;;;;;;5115653;28;20028;-65
2022/07/18 09:10:57;;;;;;;4.43;2.03;;;31.50;52.70;;;;;;5111320;28;20028;-64
2022/07/18 09:13:44;;;;;;;5.80;2.03;;;32.50;51.10;;;;;;5115372;28;20024;-64
2022/07/18 09:16:14;;;;;;;6.68;1.98;;;33.50;49.30;;;;;;5114599;28;20064;-63
2022/07/18 09:18:46;;;;;;;4.85;2.05;;;33.40;49.70;;;;;;5108641;28;20107;-64
2022/07/18 09:21:19;;;;;;;3.97;1.77;;;32.90;49.50;;;;;;5113541;28;20050;-63
2022/07/18 09:23:50;;;;;;;;;;;33.20;48.70;;;;;;5113577;28;20024;-64
2022/07/18 09:26:38;;;;;;;5.40;1.80;;;32.80;48.60;;;;;;5109627;28;19907;-66
2022/07/18 09:29:04;;;;;;;5.32;1.83;;;32.80;48.50;;;;;;5115184;28;20325;-65
2022/07/18 09:31:30;;;;;;;6.20;2.10;;;32.50;49.00;;;;;;5113144;28;20034;-65
2022/07/18 09:33:59;;;;;;;5.30;2.00;;;33.10;48.50;;;;;;5103288;28;20094;-65
2022/07/18 09:36:26;;;;;;;6.15;1.75;;;33.00;48.20;;;;;;5114228;27;20869;-66
2022/07/18 09:38:52;;;;;;;3.90;1.70;;;33.30;48.00;;;;;;5123692;27;20016;-66
2022/07/18 09:41:27;;;;;;;5.97;1.83;;;33.40;47.40;;;;;;5123607;27;20027;-66
2022/07/18 09:43:53;;;;;;;5.97;2.15;;;33.20;47.60;;;;;;5135943;27;20054;-64
2022/07/18 09:46:19;;;;;;;6.28;1.70;;;32.50;47.30;;;;;;5123686;27;20036;-64
2022/07/18 09:48:45;;;;;;;5.97;1.90;;;32.80;46.50;;;;;;5114984;27;20300;-65
2022/07/18 09:51:11;;;;;;;5.65;2.28;;;33.40;46.10;;;;;;5117999;27;20062;-65
2022/07/18 09:53:42;;;;;;;3.60;1.65;;;33.70;45.80;;;;;;5118989;27;20060;-64
2022/07/18 09:56:13;;;;;;;4.82;1.70;;;33.60;44.70;;;;;;5120611;27;20043;-64
2022/07/18 09:58:41;;;;;;;4.63;1.77;;;33.00;45.60;;;;;;5117641;27;20028;-65
2022/07/18 10:01:09;;;;;;;4.18;1.92;;;32.90;44.80;;;;;;5115717;28;20031;-66
2022/07/18 10:03:36;;;;;;;5.90;2.13;;;33.10;45.30;;;;;;5117782;28;20080;-65
2022/07/18 10:06:03;;;;;;;4.30;1.90;;;33.20;44.80;;;;;;5118790;27;20081;-64
2022/07/18 10:08:33;;;;;;;4.18;1.80;;;33.20;44.70;;;;;;5117844;28;20027;-64
2022/07/18 10:11:01;;;;;;;4.65;1.83;;;33.00;45.10;;;;;;5116256;28;20024;-65
2022/07/18 10:13:28;;;;;;;5.50;2.00;;;33.20;45.30;;;;;;5114982;27;20024;-65
2022/07/18 10:15:54;;;;;;;3.75;1.55;;;34.10;43.10;;;;;;5118578;28;20031;-64
2022/07/18 10:18:23;;;;;;;4.38;1.88;;;34.30;43.10;;;;;;5117422;28;20024;-66
2022/07/18 10:20:58;;;;;;;4.22;1.60;;;34.80;43.20;;;;;;5117988;28;20408;-66
2022/07/18 10:23:42;;;;;;;6.63;1.90;;;34.80;42.10;;;;;;5115796;28;20305;-63
2022/07/18 10:26:13;;;;;;;4.60;1.95;;;33.90;42.40;;;;;;5116138;27;20076;-65
2022/07/18 10:28:58;;;;;;;4.18;1.80;;;33.40;43.40;;;;;;5118567;27;20031;-65
2022/07/18 10:31:34;;;;;;;5.78;1.83;;;33.30;43.20;;;;;;5115559;28;20424;-64
2022/07/18 10:34:11;;;;;;;3.72;1.80;;;32.80;43.80;;;;;;5115143;28;20035;-64
2022/07/18 10:36:39;;;;;;;6.57;1.80;;;33.10;44.60;;;;;;5118266;28;20328;-64
2022/07/18 10:39:06;;;;;;;4.10;1.90;;;33.70;43.80;;;;;;5116147;28;20491;-64
2022/07/18 10:41:39;;;;;;;6.53;2.20;;;34.00;43.80;;;;;;5115717;28;20457;-64
2022/07/18 10:44:27;;;;;;;;;;;34.00;42.60;;;;;;5106197;28;20028;-65
2022/07/18 10:47:09;;;;;;;6.60;1.92;;;33.80;43.00;;;;;;5095437;27;19920;-66
2022/07/18 10:49:58;;;;;;;5.72;1.70;;;33.80;43.40;;;;;;5084678;28;20304;-66
2022/07/18 10:52:27;;;;;;;5.15;2.00;;;33.50;43.60;;;;;;5085706;28;20040;-64
2022/07/18 10:55:05;;;;;;;4.50;1.52;;;33.30;44.00;;;;;;5093197;28;20079;-65
2022/07/18 10:57:31;;;;;;;5.55;1.70;;;33.60;44.30;;;;;;5098669;28;20016;-64
2022/07/18 11:00:07;;;;;;;3.78;1.70;;;34.10;43.00;;;;;;5077518;28;20294;-64
2022/07/18 11:02:41;;;;;;;4.85;1.95;;;34.60;43.40;;;;;;5093950;28;20024;-65
2022/07/18 11:05:23;;;;;;;5.60;1.88;;;34.00;43.00;;;;;;5094494;28;20032;-64
2022/07/18 11:08:09;;;;;;;5.97;2.00;;;34.00;42.00;;;;;;5103447;28;20024;-65
2022/07/18 11:10:41;;;;;;;6.97;1.90;;;33.90;42.60;;;;;;5098408;28;20429;-65
2022/07/18 11:13:37;;;;;;;4.72;2.00;;;34.00;42.70;;;;;;5081744;28;20082;-65
2022/07/18 11:16:17;;;;;;;4.00;2.03;;;34.00;44.10;;;;;;5076702;28;20037;-66
2022/07/18 11:18:43;;;;;;;4.63;1.90;;;33.70;42.80;;;;;;5079782;28;20082;-65
2022/07/18 11:21:25;;;;;;;7.80;2.47;;;33.70;42.60;;;;;;5083922;28;20028;-66
2022/07/18 11:24:03;;;;;;;5.53;1.90;;;34.00;43.10;;;;;;5095900;28;20024;-66
2022/07/18 11:26:30;;;;;;;3.90;1.77;;;33.30;42.90;;;;;;5092414;28;20032;-64
2022/07/18 11:29:03;;;;;;;5.18;2.00;;;32.80;44.20;;;;;;5082855;28;20028;-66
2022/07/18 11:31:43;;;;;;;5.40;1.80;;;32.90;44.20;;;;;;5082390;28;20321;-66
2022/07/18 11:34:09;;;;;;;4.90;2.00;;;33.30;44.00;;;;;;5105202;28;20372;-66
2022/07/18 11:36:38;;;;;;;5.10;2.00;;;33.70;44.10;;;;;;5089653;28;20019;-66
2022/07/18 11:39:04;;;;;;;6.53;2.05;;;34.20;43.20;;;;;;5097671;28;20440;-65
2022/07/18 11:41:31;;;;;;;4.82;1.80;;;34.10;42.60;;;;;;5099815;28;20059;-66
2022/07/18 11:43:58;;;;;;;3.67;1.83;;;33.70;42.80;;;;;;5097082;28;20024;-66
2022/07/18 11:46:26;;;;;;;3.83;1.65;;;32.90;43.90;;;;;;5096573;28;20333;-65
2022/07/18 11:49:07;;;;;;;5.05;1.98;;;32.80;44.50;;;;;;5127810;27;20107;-65
2022/07/18 11:51:43;;;;;;;4.18;1.67;;;32.90;43.80;;;;;;5115875;27;20023;-66
2022/07/18 11:54:11;;;;;;;3.38;1.83;;;32.80;44.70;;;;;;5123955;27;20106;-65
2022/07/18 11:57:05;;;;;;;5.82;1.90;;;32.70;44.10;;;;;;5119105;27;20027;-65
2022/07/18 11:59:41;;;;;;;3.55;1.80;;;32.80;44.50;;;;;;5078816;28;20443;-65
2022/07/18 12:02:07;;;;;;;3.90;1.67;;;33.00;44.10;;;;;;5109493;27;20038;-65
2022/07/18 12:04:33;;;;;;;3.60;1.70;;;33.20;44.20;;;;;;5119026;27;20053;-66
2022/07/18 12:07:19;;;;;;;4.03;1.70;;;33.20;44.50;;;;;;5114960;28;20031;-64
2022/07/18 12:09:47;;;;;;;4.32;2.05;;;33.20;44.00;;;;;;5113364;27;20053;-65
2022/07/18 12:12:18;;;;;;;5.63;1.90;;;33.10;43.70;;;;;;5116556;28;20435;-64
2022/07/18 12:14:55;;;;;;;7.32;2.08;;;33.10;43.90;;;;;;5116386;28;20318;-64
2022/07/18 12:17:20;;;;;;;4.18;2.03;;;33.60;43.60;;;;;;5116500;28;20044;-64
2022/07/18 12:19:46;;;;;;;5.45;1.90;;;33.70;42.50;;;;;;5112304;28;20020;-64
2022/07/18 12:22:12;;;;;;;7.70;2.25;;;33.90;42.50;;;;;;5115372;28;20032;-65
2022/07/18 12:24:56;;;;;;;5.38;1.88;;;33.80;43.30;;;;;;5114003;28;20039;-65
2022/07/18 12:27:29;;;;;;;5.47;1.90;;;34.20;42.70;;;;;;5115164;28;20125;-65
2022/07/18 12:30:12;;;;;;;4.32;2.08;;;34.10;43.00;;;;;;5118410;28;20105;-66
2022/07/18 12:32:38;;;;;;;;;;;34.10;43.90;;;;;;5137281;27;20035;-65
2022/07/18 12:35:23;;;;;;;4.68;1.75;;;34.10;42.90;;;;;;5125706;28;20273;-65
2022/07/18 12:37:59;;;;;;;7.10;2.10;;;34.30;41.70;;;;;;5114766;28;20099;-66
2022/07/18 12:40:39;;;;;;;5.63;1.95;;;34.20;43.10;;;;;;5114219;28;20024;-66
2022/07/18 12:43:10;;;;;;;5.07;1.63;;;34.10;43.20;;;;;;5116131;28;20409;-65
2022/07/18 12:45:37;;;;;;;3.83;1.80;;;34.50;43.30;;;;;;5113915;28;20036;-66
2022/07/18 12:48:05;;;;;;;6.78;1.80;;;34.80;42.30;;;;;;5116039;28;20050;-65
2022/07/18 12:50:30;;;;;;;4.57;1.63;;;35.00;42.10;;;;;;5115166;28;20486;-67
2022/07/18 12:52:57;;;;;;;6.38;1.80;;;35.30;42.30;;;;;;5113687;28;20059;-66